Time;durP1;ratioP1;P1;durP2;ratioP2;P2;SDS_P1;SDS_P2;PMS_P1;PMS_P2;Temp;Humidity;BMP_temperature;BMP_pressure;BME280_temperature;BME280_humidity;BME280_pressure;Samples;Min_cycle;Max_cycle;Signal;HPM_P1;HPM_P2
2022/03/17 00:01:26;;;;;;;;;;;6.60;68.70;;;;;;5066865;27;86961;-50
2022/03/17 00:03:52;;;;;;;;;;;6.60;68.70;;;;;;5069924;27;86865;-52
2022/03/17 00:06:17;;;;;;;;;;;6.60;68.70;;;;;;5066687;27;87469;-49
2022/03/17 00:08:43;;;;;;;;;;;6.60;68.70;;;;;;5067227;27;86876;-51
2022/03/17 00:11:09;;;;;;;;;;;6.60;68.70;;;;;;5067156;27;86835;-51
2022/03/17 00:13:35;;;;;;;;;;;6.60;68.70;;;;;;5065960;27;87800;-49
2022/03/17 00:16:01;;;;;;;;;;;6.60;68.70;;;;;;5067004;27;86201;-50
2022/03/17 00:18:26;;;;;;;;;;;6.60;68.70;;;;;;5067128;27;86858;-49
2022/03/17 00:20:52;;;;;;;;;;;6.60;68.70;;;;;;5066399;27;88657;-50
2022/03/17 00:23:18;;;;;;;;;;;6.60;68.80;;;;;;5066231;27;87995;-54
2022/03/17 00:25:44;;;;;;;;;;;6.60;68.70;;;;;;5069217;27;88797;-49
2022/03/17 00:28:10;;;;;;;;;;;6.50;68.70;;;;;;5066986;27;86847;-49
2022/03/17 00:30:36;;;;;;;;;;;6.50;68.70;;;;;;5066414;27;87050;-53
2022/03/17 00:33:01;;;;;;;;;;;6.50;68.70;;;;;;5066050;27;88433;-50
2022/03/17 00:35:36;;;;;;;;;;;6.50;68.70;;;;;;5066612;27;86938;-49
2022/03/17 00:38:11;;;;;;;;;;;6.50;68.70;;;;;;5066362;27;88021;-49
2022/03/17 00:40:38;;;;;;;;;;;6.50;68.70;;;;;;5066555;27;87706;-49
2022/03/17 00:43:05;;;;;;;;;;;6.50;68.70;;;;;;5066300;27;87039;-51
2022/03/17 00:45:31;;;;;;;;;;;6.50;68.60;;;;;;5066110;27;88212;-51
2022/03/17 00:47:57;;;;;;;;;;;6.50;68.70;;;;;;5068360;27;87974;-51
2022/03/17 00:50:23;;;;;;;;;;;6.50;68.70;;;;;;5066355;27;88856;-51
2022/03/17 00:52:49;;;;;;;;;;;6.50;68.70;;;;;;5066260;27;87508;-49
2022/03/17 00:55:15;;;;;;;;;;;6.50;68.70;;;;;;5066233;27;86852;-49
2022/03/17 00:57:41;;;;;;;;;;;6.50;68.70;;;;;;5066302;27;87891;-49
2022/03/17 01:00:14;;;;;;;;;;;6.50;68.70;;;;;;5066219;27;87100;-49
2022/03/17 01:02:43;;;;;;;;;;;6.50;68.70;;;;;;5066304;27;87030;-49
2022/03/17 01:05:10;;;;;;;;;;;6.40;68.60;;;;;;5066949;27;86174;-49
2022/03/17 01:07:37;;;;;;;;;;;6.50;68.70;;;;;;5065860;27;88470;-49
2022/03/17 01:10:06;;;;;;;;;;;6.40;68.70;;;;;;5068877;27;86879;-49
2022/03/17 01:12:32;;;;;;;;;;;6.40;68.70;;;;;;5064416;27;88527;-49
2022/03/17 01:14:58;;;;;;;;;;;6.50;68.80;;;;;;5065968;27;86958;-49
2022/03/17 01:17:24;;;;;;;;;;;6.40;68.70;;;;;;5066270;27;87204;-49
2022/03/17 01:19:49;;;;;;;;;;;6.40;68.70;;;;;;5065633;27;88431;-49
2022/03/17 01:22:16;;;;;;;;;;;6.40;68.70;;;;;;5066337;27;86814;-49
2022/03/17 01:24:43;;;;;;;;;;;6.40;68.70;;;;;;5065858;27;88466;-49
2022/03/17 01:27:09;;;;;;;;;;;6.40;68.70;;;;;;5068932;27;88445;-49
2022/03/17 01:29:34;;;;;;;;;;;6.40;68.70;;;;;;5072837;27;86116;-49
2022/03/17 01:32:00;;;;;;;;;;;6.40;68.70;;;;;;5069056;27;88386;-49
2022/03/17 01:34:26;;;;;;;;;;;6.40;68.70;;;;;;5069257;27;86857;-50
2022/03/17 01:36:52;;;;;;;;;;;6.40;68.70;;;;;;5068855;27;87882;-49
2022/03/17 01:39:17;;;;;;;;;;;6.40;68.70;;;;;;5069219;27;87513;-49
2022/03/17 01:41:43;;;;;;;;;;;6.40;68.70;;;;;;5069269;27;86906;-50
2022/03/17 01:44:09;;;;;;;;;;;6.40;68.80;;;;;;5068612;27;86969;-49
2022/03/17 01:47:26;;;;;;;;;;;6.40;68.80;;;;;;5068636;27;88705;-49
2022/03/17 01:49:20;;;;;;;;;;;6.40;68.70;;;;;;5069158;27;86911;-49
2022/03/17 01:51:48;;;;;;;;;;;6.40;68.80;;;;;;5071812;27;87950;-49
2022/03/17 01:54:15;;;;;;;;;;;6.40;68.80;;;;;;5069458;27;86110;-49
2022/03/17 01:56:41;;;;;;;;;;;6.40;68.80;;;;;;5069484;27;86761;-49
2022/03/17 01:59:07;;;;;;;;;;;6.40;68.80;;;;;;5068625;27;87714;-49
2022/03/17 02:01:33;;;;;;;;;;;6.40;68.90;;;;;;5068400;27;87812;-49
2022/03/17 02:03:59;;;;;;;;;;;6.30;68.80;;;;;;5068903;27;88975;-49
2022/03/17 02:06:25;;;;;;;;;;;6.30;68.80;;;;;;5068406;27;88996;-50
2022/03/17 02:08:51;;;;;;;;;;;6.40;68.90;;;;;;5068767;27;87036;-49
2022/03/17 02:14:01;;;;;;;;;;;6.40;68.90;;;;;;5071474;27;87142;-49
2022/03/17 02:16:27;;;;;;;;;;;6.30;68.80;;;;;;5068761;27;87828;-49
2022/03/17 02:18:53;;;;;;;;;;;6.40;69.50;;;;;;5069113;27;86755;-49
2022/03/17 02:21:19;;;;;;;;;;;6.30;68.90;;;;;;5068663;27;87100;-50
2022/03/17 02:26:30;;;;;;;;;;;6.30;69.40;;;;;;5067852;27;88187;-49
2022/03/17 02:28:56;;;;;;;;;;;6.30;68.90;;;;;;5068777;27;87004;-49
2022/03/17 02:31:21;;;;;;;;;;;6.30;69.00;;;;;;5068582;27;87784;-49
2022/03/17 02:33:47;;;;;;;;;;;6.30;69.00;;;;;;5068348;27;87517;-49
2022/03/17 02:36:12;;;;;;;;;;;6.30;69.10;;;;;;5071415;27;86879;-49
2022/03/17 02:38:38;;;;;;;;;;;6.30;69.10;;;;;;5067691;27;87597;-49
2022/03/17 02:41:04;;;;;;;;;;;6.30;69.20;;;;;;5068594;27;86960;-49
2022/03/17 02:43:30;;;;;;;;;;;6.30;69.10;;;;;;5068845;27;86789;-49
2022/03/17 02:45:55;;;;;;;;;;;6.30;69.00;;;;;;5067411;27;87571;-50
2022/03/17 02:48:21;;;;;;;;;;;6.30;69.10;;;;;;5068280;27;87036;-49
2022/03/17 02:50:46;;;;;;;;;;;6.20;68.90;;;;;;5067594;27;87974;-49
2022/03/17 02:53:13;;;;;;;;;;;6.30;68.90;;;;;;5067648;27;88455;-49
2022/03/17 02:55:41;;;;;;;;;;;6.30;68.90;;;;;;5068149;27;86921;-50
2022/03/17 02:58:07;;;;;;;;;;;6.30;68.90;;;;;;5069864;27;86930;-49
2022/03/17 03:00:33;;;;;;;;;;;6.30;68.90;;;;;;5068320;27;86724;-49
2022/03/17 03:02:59;;;;;;;;;;;6.30;69.00;;;;;;5067992;27;87335;-49
2022/03/17 03:05:26;;;;;;;;;;;6.30;68.90;;;;;;5067538;27;87591;-49
2022/03/17 03:07:53;;;;;;;;;;;6.30;69.00;;;;;;5068508;27;86045;-49
2022/03/17 03:10:19;;;;;;;;;;;6.30;68.90;;;;;;5067913;27;87113;-50
2022/03/17 03:12:45;;;;;;;;;;;6.20;68.80;;;;;;5067481;27;88538;-49
2022/03/17 03:15:11;;;;;;;;;;;6.20;68.90;;;;;;5067285;27;87919;-49
2022/03/17 03:17:36;;;;;;;;;;;6.20;69.00;;;;;;5070405;27;87730;-49
2022/03/17 03:20:02;;;;;;;;;;;6.30;69.20;;;;;;5067766;27;86823;-49
2022/03/17 03:22:29;;;;;;;;;;;6.20;69.20;;;;;;5067400;27;87018;-49
2022/03/17 03:24:57;;;;;;;;;;;6.20;69.70;;;;;;5067281;27;87670;-49
2022/03/17 03:27:27;;;;;;;;;;;6.20;69.20;;;;;;5067606;27;87026;-49
2022/03/17 03:29:56;;;;;;;;;;;6.20;69.70;;;;;;5067815;27;86881;-49
2022/03/17 03:32:22;;;;;;;;;;;6.20;69.20;;;;;;5067686;27;86753;-49
2022/03/17 03:34:49;;;;;;;;;;;6.20;69.20;;;;;;5067343;27;86782;-49
2022/03/17 03:37:23;;;;;;;;;;;6.20;69.20;;;;;;5067484;27;87747;-49
2022/03/17 03:39:52;;;;;;;;;;;6.20;69.20;;;;;;5069005;27;87839;-49
2022/03/17 03:42:18;;;;;;;;;;;6.20;69.10;;;;;;5067422;27;88719;-49
2022/03/17 03:44:44;;;;;;;;;;;6.10;69.10;;;;;;5066654;27;87664;-49
2022/03/17 03:47:09;;;;;;;;;;;6.20;69.20;;;;;;5067376;27;86802;-51
2022/03/17 03:49:38;;;;;;;;;;;6.20;69.20;;;;;;5066210;27;87068;-50
2022/03/17 03:52:05;;;;;;;;;;;6.10;69.20;;;;;;5066854;27;88496;-49
2022/03/17 03:54:31;;;;;;;;;;;6.10;69.20;;;;;;5067216;27;86924;-49
2022/03/17 03:56:56;;;;;;;;;;;6.10;69.20;;;;;;5067659;27;87778;-49
2022/03/17 03:59:24;;;;;;;;;;;6.10;69.20;;;;;;5066705;27;88667;-49
2022/03/17 04:01:51;;;;;;;;;;;6.10;69.20;;;;;;5070200;27;86920;-49
2022/03/17 04:04:20;;;;;;;;;;;6.10;69.20;;;;;;5066347;27;88013;-49
2022/03/17 04:06:47;;;;;;;;;;;6.10;69.20;;;;;;5067035;27;86876;-49
2022/03/17 04:09:13;;;;;;;;;;;6.10;69.20;;;;;;5066909;27;87601;-49
2022/03/17 04:11:39;;;;;;;;;;;6.10;69.20;;;;;;5066647;27;88433;-49
2022/03/17 04:14:06;;;;;;;;;;;6.10;69.40;;;;;;5066972;27;86875;-49
2022/03/17 04:16:32;;;;;;;;;;;6.10;69.20;;;;;;5067067;27;87975;-49
2022/03/17 04:18:57;;;;;;;;;;;6.10;69.30;;;;;;5066744;27;86855;-50
2022/03/17 04:21:23;;;;;;;;;;;6.10;69.20;;;;;;5067597;27;86125;-49
2022/03/17 04:23:50;;;;;;;;;;;6.10;69.20;;;;;;5069385;27;86783;-49
2022/03/17 04:26:16;;;;;;;;;;;6.10;69.20;;;;;;5066813;27;86824;-49
2022/03/17 04:28:42;;;;;;;;;;;6.10;69.30;;;;;;5066122;27;87775;-49
2022/03/17 04:31:08;;;;;;;;;;;6.10;69.20;;;;;;5066371;27;88488;-49
2022/03/17 04:33:34;;;;;;;;;;;6.10;69.30;;;;;;5066648;27;86764;-49
2022/03/17 04:36:01;;;;;;;;;;;6.10;69.30;;;;;;5066915;27;86858;-50
2022/03/17 04:38:27;;;;;;;;;;;6.10;69.30;;;;;;5066313;27;87619;-49
2022/03/17 04:40:52;;;;;;;;;;;6.10;69.30;;;;;;5066508;27;86918;-53
2022/03/17 04:43:18;;;;;;;;;;;6.00;69.20;;;;;;5067022;27;86927;-51
2022/03/17 04:45:45;;;;;;;;;;;6.10;69.20;;;;;;5068996;27;87109;-49
2022/03/17 04:48:10;;;;;;;;;;;6.00;69.30;;;;;;5066494;27;87207;-49
2022/03/17 04:50:36;;;;;;;;;;;6.00;69.20;;;;;;5066293;27;87742;-49
2022/03/17 04:55:46;;;;;;;;;;;6.00;69.20;;;;;;5063395;27;86846;-49
2022/03/17 04:58:13;;;;;;;;;;;6.00;69.20;;;;;;5065985;27;87698;-49
2022/03/17 05:00:41;;;;;;;;;;;6.00;69.20;;;;;;5067476;27;87054;-49
2022/03/17 05:03:07;;;;;;;;;;;6.00;69.20;;;;;;5069286;27;87024;-49
2022/03/17 05:05:33;;;;;;;;;;;6.00;69.20;;;;;;5069511;27;88374;-49
2022/03/17 05:08:00;;;;;;;;;;;6.00;69.20;;;;;;5072771;27;86825;-49
2022/03/17 05:10:27;;;;;;;;;;;6.00;69.20;;;;;;5069869;27;87937;-49
2022/03/17 05:12:53;;;;;;;;;;;6.00;69.20;;;;;;5069611;27;86866;-49
2022/03/17 05:15:18;;;;;;;;;;;6.00;69.20;;;;;;5069030;27;87342;-49
2022/03/17 05:17:44;;;;;;;;;;;5.90;69.20;;;;;;5068661;27;88670;-49
2022/03/17 05:20:10;;;;;;;;;;;6.00;69.20;;;;;;5069641;27;86873;-49
2022/03/17 05:22:36;;;;;;;;;;;6.00;69.20;;;;;;5069544;27;88305;-49
2022/03/17 05:25:04;;;;;;;;;;;6.00;69.20;;;;;;5069457;27;87495;-49
2022/03/17 05:27:30;;;;;;;;;;;5.90;69.20;;;;;;5072500;27;86822;-49
2022/03/17 05:29:56;;;;;;;;;;;5.90;69.10;;;;;;5069232;27;87614;-49
2022/03/17 05:32:22;;;;;;;;;;;5.90;69.10;;;;;;5069459;27;86768;-49
2022/03/17 05:34:47;;;;;;;;;;;5.90;69.20;;;;;;5069825;27;87777;-49
2022/03/17 05:37:13;;;;;;;;;;;5.90;69.20;;;;;;5069031;27;87689;-49
2022/03/17 05:39:40;;;;;;;;;;;5.90;69.30;;;;;;5069334;27;87072;-49
2022/03/17 05:42:06;;;;;;;;;;;5.90;69.30;;;;;;5068662;27;87858;-49
2022/03/17 05:44:32;;;;;;;;;;;5.90;69.20;;;;;;5068753;27;88517;-49
2022/03/17 05:46:57;;;;;;;;;;;5.90;69.20;;;;;;5069223;27;86889;-49
2022/03/17 05:49:23;;;;;;;;;;;5.90;69.20;;;;;;5072002;27;87367;-49
2022/03/17 05:51:49;;;;;;;;;;;5.90;69.30;;;;;;5069129;27;86872;-49
2022/03/17 05:54:14;;;;;;;;;;;5.90;69.30;;;;;;5069271;27;87014;-49
2022/03/17 05:56:40;;;;;;;;;;;5.90;69.20;;;;;;5069016;27;87451;-49
2022/03/17 05:59:05;;;;;;;;;;;5.90;69.30;;;;;;5069495;27;86334;-49
2022/03/17 06:01:31;;;;;;;;;;;5.90;69.20;;;;;;5069363;27;87029;-49
2022/03/17 06:03:57;;;;;;;;;;;5.90;69.10;;;;;;5068647;27;87532;-49
2022/03/17 06:06:23;;;;;;;;;;;5.80;69.10;;;;;;5068351;27;87797;-49
2022/03/17 06:08:48;;;;;;;;;;;5.80;69.20;;;;;;5068874;27;88705;-49
2022/03/17 06:11:14;;;;;;;;;;;5.80;69.20;;;;;;5071654;27;87464;-49
2022/03/17 06:13:39;;;;;;;;;;;5.90;69.20;;;;;;5068098;27;86827;-49
2022/03/17 06:16:06;;;;;;;;;;;5.90;69.10;;;;;;5068402;27;88524;-49
2022/03/17 06:18:32;;;;;;;;;;;5.90;69.10;;;;;;5068733;27;86878;-49
2022/03/17 06:20:57;;;;;;;;;;;5.90;69.10;;;;;;5068761;27;87577;-50
2022/03/17 06:23:25;;;;;;;;;;;5.90;69.20;;;;;;5069129;27;86737;-49
2022/03/17 06:25:51;;;;;;;;;;;5.80;69.10;;;;;;5068693;27;86874;-49
2022/03/17 06:28:18;;;;;;;;;;;5.80;69.10;;;;;;5068661;27;87352;-49
2022/03/17 06:30:44;;;;;;;;;;;5.80;69.10;;;;;;5067568;27;89341;-50
2022/03/17 06:33:09;;;;;;;;;;;5.80;69.10;;;;;;5071778;27;86997;-49
2022/03/17 06:35:35;;;;;;;;;;;5.80;69.20;;;;;;5068102;27;88526;-49
2022/03/17 06:38:02;;;;;;;;;;;5.80;69.20;;;;;;5068415;27;86904;-49
2022/03/17 06:40:28;;;;;;;;;;;5.80;69.70;;;;;;5068486;27;87043;-49
2022/03/17 06:42:55;;;;;;;;;;;5.80;69.10;;;;;;5067907;27;88647;-49
2022/03/17 06:45:21;;;;;;;;;;;5.80;69.10;;;;;;5067609;27;86953;-49
2022/03/17 06:47:47;;;;;;;;;;;5.80;69.10;;;;;;5068831;27;87172;-49
2022/03/17 06:50:13;;;;;;;;;;;5.80;69.20;;;;;;5067527;27;86916;-49
2022/03/17 06:52:39;;;;;;;;;;;5.80;69.30;;;;;;5068147;27;86906;-49
2022/03/17 06:55:06;;;;;;;;;;;5.80;69.10;;;;;;5070029;27;88125;-49
2022/03/17 06:57:32;;;;;;;;;;;5.80;69.10;;;;;;5068092;27;86891;-49
2022/03/17 06:59:57;;;;;;;;;;;5.80;69.10;;;;;;5068110;27;87822;-49
2022/03/17 07:02:23;;;;;;;;;;;5.80;69.20;;;;;;5067624;27;88632;-49
2022/03/17 07:04:49;;;;;;;;;;;5.80;69.20;;;;;;5068235;27;86940;-49
2022/03/17 07:07:15;;;;;;;;;;;5.70;69.70;;;;;;5067953;27;88132;-49
2022/03/17 07:09:41;;;;;;;;;;;5.70;69.10;;;;;;5067495;27;89041;-49
2022/03/17 07:12:07;;;;;;;;;;;5.70;69.20;;;;;;5068527;27;86156;-49
2022/03/17 07:14:33;;;;;;;;;;;5.70;69.20;;;;;;5067755;27;87022;-49
2022/03/17 07:16:58;;;;;;;;;;;5.70;69.10;;;;;;5070535;27;87465;-49
2022/03/17 07:19:24;;;;;;;;;;;5.70;69.10;;;;;;5067416;27;87786;-49
2022/03/17 07:21:51;;;;;;;;;;;5.70;69.20;;;;;;5067392;27;88461;-50
2022/03/17 07:24:17;;;;;;;;;;;5.70;69.20;;;;;;5067646;27;86925;-49
2022/03/17 07:26:43;;;;;;;;;;;5.70;69.20;;;;;;5067956;27;87126;-49
2022/03/17 07:29:09;;;;;;;;;;;5.70;69.20;;;;;;5067266;27;87763;-49
2022/03/17 07:31:35;;;;;;;;;;;5.70;69.20;;;;;;5067624;27;86965;-49
2022/03/17 07:34:01;;;;;;;;;;;5.70;69.20;;;;;;5067446;27;87247;-49
2022/03/17 07:36:27;;;;;;;;;;;5.70;69.20;;;;;;5070516;27;87841;-49
2022/03/17 07:38:56;;;;;;;;;;;5.70;69.20;;;;;;5067507;27;87219;-49
2022/03/17 07:41:22;;;;;;;;;;;5.70;69.20;;;;;;5067336;27;87195;-49
2022/03/17 07:43:48;;;;;;;;;;;5.70;69.20;;;;;;5067120;27;88246;-49
2022/03/17 07:46:14;;;;;;;;;;;5.70;69.20;;;;;;5066998;27;88849;-49
2022/03/17 07:48:41;;;;;;;;;;;5.70;69.20;;;;;;5066973;27;88542;-49
2022/03/17 07:51:08;;;;;;;;;;;5.70;69.20;;;;;;5067268;27;87159;-49
2022/03/17 07:53:34;;;;;;;;;;;5.70;69.20;;;;;;5067593;27;86877;-49
2022/03/17 07:56:01;;;;;;;;;;;5.70;69.20;;;;;;5067205;27;87650;-49
2022/03/17 07:58:27;;;;;;;;;;;5.70;69.20;;;;;;5070138;27;86952;-49
2022/03/17 08:00:54;;;;;;;;;;;5.70;69.80;;;;;;5067234;27;87763;-51
2022/03/17 08:03:21;;;;;;;;;;;5.70;69.20;;;;;;5067188;27;86853;-51
2022/03/17 08:05:47;;;;;;;;;;;5.70;69.30;;;;;;5067156;27;88112;-50
2022/03/17 08:08:13;;;;;;;;;;;5.70;69.30;;;;;;5066053;27;88559;-49
2022/03/17 08:10:39;;;;;;;;;;;5.70;69.20;;;;;;5067279;27;86953;-49
2022/03/17 08:13:06;;;;;;;;;;;5.70;69.30;;;;;;5067257;27;86761;-49
2022/03/17 08:15:32;;;;;;;;;;;5.70;69.30;;;;;;5066227;27;86869;-49
2022/03/17 08:17:57;;;;;;;;;;;5.70;69.30;;;;;;5066896;27;86964;-50
2022/03/17 08:20:23;;;;;;;;;;;5.70;69.40;;;;;;5069796;27;86925;-49
2022/03/17 08:22:50;;;;;;;;;;;5.70;69.40;;;;;;5067090;27;86996;-49
2022/03/17 08:25:18;;;;;;;;;;;5.70;69.40;;;;;;5067354;27;86913;-52
2022/03/17 08:27:44;;;;;;;;;;;5.70;69.40;;;;;;5066579;27;88695;-49
2022/03/17 08:30:10;;;;;;;;;;;5.60;69.40;;;;;;5066834;27;86983;-49
2022/03/17 08:32:36;;;;;;;;;;;5.60;69.40;;;;;;5066174;27;88018;-49
2022/03/17 08:35:02;;;;;;;;;;;5.60;69.40;;;;;;5065995;27;86775;-50
2022/03/17 08:37:28;;;;;;;;;;;5.60;69.50;;;;;;5066489;27;87242;-49
2022/03/17 08:39:54;;;;;;;;;;;5.60;69.40;;;;;;5066581;27;88050;-49
2022/03/17 08:42:20;;;;;;;;;;;5.60;69.40;;;;;;5069258;27;88430;-48
2022/03/17 08:44:45;;;;;;;;;;;5.60;69.50;;;;;;5066050;27;87938;-49
2022/03/17 08:49:55;;;;;;;;;;;5.60;69.50;;;;;;5067232;27;86008;-50
2022/03/17 08:52:21;;;;;;;;;;;5.60;69.50;;;;;;5066491;27;86900;-49
2022/03/17 08:54:47;;;;;;;;;;;5.60;69.40;;;;;;5065783;27;88570;-49
2022/03/17 08:57:13;;;;;;;;;;;5.60;69.50;;;;;;5066089;27;87975;-49
2022/03/17 08:59:38;;;;;;;;;;;5.60;69.50;;;;;;5066655;27;87625;-49
2022/03/17 09:02:06;;;;;;;;;;;5.60;69.50;;;;;;5066002;27;88855;-49
2022/03/17 09:04:31;;;;;;;;;;;5.50;69.50;;;;;;5069194;27;86885;-49
2022/03/17 09:06:59;;;;;;;;;;;5.50;69.50;;;;;;5065894;27;87694;-49
2022/03/17 09:09:28;;;;;;;;;;;5.60;69.40;;;;;;5066099;27;86856;-49
2022/03/17 09:11:54;;;;;;;;;;;5.60;69.40;;;;;;5066192;27;87947;-49
2022/03/17 09:14:21;;;;;;;;;;;5.50;69.30;;;;;;5066466;27;86869;-49
2022/03/17 09:16:46;;;;;;;;;;;5.50;69.40;;;;;;5066117;27;87044;-49
2022/03/17 09:19:12;;;;;;;;;;;5.50;69.40;;;;;;5066196;27;87113;-49
2022/03/17 09:21:38;;;;;;;;;;;5.50;70.10;;;;;;5065358;27;88328;-49
2022/03/17 09:24:04;;;;;;;;;;;5.50;69.50;;;;;;5066077;27;87346;-49
2022/03/17 09:26:30;;;;;;;;;;;5.50;69.50;;;;;;5068602;27;87978;-49
2022/03/17 09:28:56;;;;;;;;;;;5.50;69.50;;;;;;5066353;27;86822;-48
2022/03/17 09:31:23;;;;;;;;;;;5.50;69.50;;;;;;5066025;27;87994;-49
2022/03/17 09:33:49;;;;;;;;;;;5.50;69.50;;;;;;5065352;27;88571;-49
2022/03/17 09:36:16;;;;;;;;;;;5.50;69.50;;;;;;5065935;27;87046;-48
2022/03/17 09:38:42;;;;;;;;;;;5.50;69.50;;;;;;5066303;27;87036;-50
2022/03/17 09:41:24;;;;;;;;;;;5.50;69.50;;;;;;5065530;27;87635;-49
2022/03/17 09:43:53;;;;;;;;;;;5.50;69.50;;;;;;5066142;27;86908;-49
2022/03/17 09:46:21;;;;;;;;;;;5.50;69.50;;;;;;5067340;27;88095;-49
2022/03/17 09:48:48;;;;;;;;;;;5.50;69.60;;;;;;5068496;27;86830;-49
2022/03/17 09:51:15;;;;;;;;;;;5.40;69.50;;;;;;5069448;27;86930;-49
2022/03/17 09:53:40;;;;;;;;;;;5.40;69.60;;;;;;5068832;27;88617;-49
2022/03/17 09:56:06;;;;;;;;;;;5.40;69.60;;;;;;5069088;27;86843;-49
2022/03/17 09:58:32;;;;;;;;;;;5.40;69.60;;;;;;5069035;27;88028;-49
2022/03/17 10:00:59;;;;;;;;;;;5.40;69.60;;;;;;5069016;27;87623;-48
2022/03/17 10:03:29;;;;;;;;;;;5.40;69.60;;;;;;5068867;27;86315;-48
2022/03/17 10:05:57;;;;;;;;;;;5.40;69.70;;;;;;5069073;27;87210;-48
2022/03/17 10:08:23;;;;;;;;;;;5.40;69.70;;;;;;5071452;27;88457;-48
2022/03/17 10:10:49;;;;;;;;;;;5.40;69.70;;;;;;5068424;27;87940;-48
2022/03/17 10:13:19;;;;;;;;;;;5.40;69.60;;;;;;5068499;27;87767;-48
2022/03/17 10:15:46;;;;;;;;;;;5.40;69.60;;;;;;5068643;27;87121;-49
2022/03/17 10:18:24;;;;;;;;;;;5.40;69.60;;;;;;5068697;27;86855;-50
2022/03/17 10:21:06;;;;;;;;;;;5.40;69.70;;;;;;5068267;27;88853;-49
2022/03/17 10:23:31;;;;;;;;;;;5.40;69.70;;;;;;5068803;27;86882;-48
2022/03/17 10:25:57;;;;;;;;;;;5.40;69.60;;;;;;5069080;27;86858;-50
2022/03/17 10:28:26;;;;;;;;;;;5.40;69.60;;;;;;5069032;27;86644;-50
2022/03/17 10:31:05;;;;;;;;;;;5.40;69.60;;;;;;5071588;27;86924;-48
2022/03/17 10:33:31;;;;;;;;;;;5.50;69.60;;;;;;5068093;27;88432;-50
2022/03/17 10:36:21;;;;;;;;;;;5.40;69.60;;;;;;5067795;27;87773;-51
2022/03/17 10:38:48;;;;;;;;;;;5.40;69.60;;;;;;5067996;27;87819;-49
2022/03/17 10:41:16;;;;;;;;;;;5.40;69.60;;;;;;5067703;27;87571;-49
2022/03/17 10:43:43;;;;;;;;;;;5.50;69.60;;;;;;5068392;27;86869;-51
2022/03/17 10:46:11;;;;;;;;;;;5.50;69.70;;;;;;5067820;27;87164;-49
2022/03/17 10:48:52;;;;;;;;;;;5.40;69.60;;;;;;5067838;27;87399;-48
2022/03/17 10:51:34;;;;;;;;;;;5.50;69.60;;;;;;5068217;27;86922;-50
2022/03/17 10:54:03;;;;;;;;;;;5.50;69.60;;;;;;5070670;27;86904;-48
2022/03/17 10:56:29;;;;;;;;;;;5.50;69.50;;;;;;5068029;27;86909;-48
2022/03/17 10:58:56;;;;;;;;;;;5.50;69.60;;;;;;5067902;27;86943;-49
2022/03/17 11:01:38;;;;;;;;;;;5.50;69.70;;;;;;5067039;27;89474;-48
2022/03/17 11:04:04;;;;;;;;;;;5.50;69.70;;;;;;5068149;27;86757;-52
2022/03/17 11:06:30;;;;;;;;;;;5.50;69.70;;;;;;5068051;27;87770;-48
2022/03/17 11:09:00;;;;;;;;;;;5.50;70.30;;;;;;5067527;27;88466;-48
2022/03/17 11:11:29;;;;;;;;;;;5.50;69.80;;;;;;5067881;27;86864;-49
2022/03/17 11:13:56;;;;;;;;;;;5.50;69.70;;;;;;5067327;27;86982;-48
2022/03/17 11:16:24;;;;;;;;;;;5.50;69.70;;;;;;5070418;27;88203;-49
2022/03/17 11:18:50;;;;;;;;;;;5.50;69.80;;;;;;5068297;27;87935;-48
2022/03/17 11:21:26;;;;;;;;;;;5.50;69.80;;;;;;5067374;27;88519;-49
2022/03/17 11:24:04;;;;;;;;;;;5.50;69.80;;;;;;5067722;27;86824;-48
2022/03/17 11:26:38;;;;;;;;;;;5.50;69.90;;;;;;5067334;27;87824;-48
2022/03/17 11:29:04;;;;;;;;;;;5.50;70.40;;;;;;5067189;27;88974;-49
2022/03/17 11:31:48;;;;;;;;;;;5.50;69.90;;;;;;5067636;27;86843;-48
2022/03/17 11:34:14;;;;;;;;;;;5.50;70.60;;;;;;5066842;27;86995;-49
2022/03/17 11:37:01;;;;;;;;;;;5.50;69.90;;;;;;5066681;27;87344;-49
2022/03/17 11:39:27;;;;;;;;;;;5.50;69.90;;;;;;5069889;27;86933;-48
2022/03/17 11:41:53;;;;;;;;;;;5.40;69.90;;;;;;5067354;27;87488;-48
2022/03/17 11:44:30;;;;;;;;;;;5.40;70.00;;;;;;5067661;27;86143;-48
2022/03/17 11:46:56;;;;;;;;;;;5.40;70.00;;;;;;5067653;27;86794;-48
2022/03/17 11:49:27;;;;;;;;;;;5.40;70.10;;;;;;5066852;27;88207;-50
2022/03/17 11:51:57;;;;;;;;;;;5.40;70.10;;;;;;5066610;27;87845;-48
2022/03/17 11:54:23;;;;;;;;;;;5.40;70.00;;;;;;5067458;27;88807;-48
2022/03/17 11:56:53;;;;;;;;;;;5.40;70.70;;;;;;5066831;27;88325;-48
2022/03/17 11:59:21;;;;;;;;;;;5.40;70.10;;;;;;5070166;27;86955;-48
2022/03/17 12:01:47;;;;;;;;;;;5.40;70.10;;;;;;5066697;27;88426;-48
2022/03/17 12:04:28;;;;;;;;;;;5.40;70.10;;;;;;5067166;27;87060;-50
2022/03/17 12:06:56;;;;;;;;;;;5.40;70.20;;;;;;5066965;27;87766;-49
2022/03/17 12:09:29;;;;;;;;;;;5.40;70.30;;;;;;5066788;27;87904;-49
2022/03/17 12:11:55;;;;;;;;;;;5.40;70.20;;;;;;5066568;27;86896;-48
2022/03/17 12:14:24;;;;;;;;;;;5.40;70.30;;;;;;5066954;27;87934;-48
2022/03/17 12:17:06;;;;;;;;;;;5.30;70.30;;;;;;5065848;27;89557;-49
2022/03/17 12:19:33;;;;;;;;;;;5.30;70.30;;;;;;5066930;27;86858;-48
2022/03/17 12:22:02;;;;;;;;;;;5.30;70.40;;;;;;5069496;27;87977;-48
2022/03/17 12:24:34;;;;;;;;;;;5.30;70.40;;;;;;5066809;27;86919;-49
2022/03/17 12:27:13;;;;;;;;;;;5.30;70.50;;;;;;5067059;27;86943;-48
2022/03/17 12:29:39;;;;;;;;;;;5.30;70.30;;;;;;5066712;27;86912;-48
2022/03/17 12:32:07;;;;;;;;;;;5.30;70.30;;;;;;5066696;27;86796;-52
2022/03/17 12:34:33;;;;;;;;;;;5.30;70.40;;;;;;5067092;27;87662;-48
2022/03/17 12:37:01;;;;;;;;;;;5.30;70.60;;;;;;5066140;27;87722;-49
2022/03/17 12:39:28;;;;;;;;;;;5.30;70.40;;;;;;5066644;27;86992;-49
2022/03/17 12:41:53;;;;;;;;;;;5.30;70.30;;;;;;5066229;27;87964;-49
2022/03/17 12:44:22;;;;;;;;;;;5.30;70.30;;;;;;5069083;27;87539;-50
2022/03/17 12:46:48;;;;;;;;;;;5.30;70.30;;;;;;5066958;27;87058;-49
2022/03/17 12:49:14;;;;;;;;;;;5.30;70.40;;;;;;5066160;27;88385;-49
2022/03/17 12:51:40;;;;;;;;;;;5.30;70.30;;;;;;5066497;27;86856;-50
2022/03/17 12:54:05;;;;;;;;;;;5.30;70.30;;;;;;5066405;27;87809;-48
2022/03/17 12:56:45;;;;;;;;;;;5.30;70.50;;;;;;5066207;27;88291;-49
2022/03/17 12:59:11;;;;;;;;;;;5.30;70.40;;;;;;5066924;27;86139;-49
2022/03/17 13:01:39;;;;;;;;;;;5.30;70.40;;;;;;5066673;27;86845;-49
2022/03/17 13:04:05;;;;;;;;;;;5.40;70.40;;;;;;5066202;27;87703;-50
2022/03/17 13:09:15;;;;;;;;;;;5.40;70.40;;;;;;5062991;27;87190;-48
2022/03/17 13:14:25;;;;;;;;;;;5.40;70.30;;;;;;5066371;27;86996;-48
2022/03/17 13:16:58;;;;;;;;;;;5.40;70.20;;;;;;5065824;27;88681;-48
2022/03/17 13:19:24;;;;;;;;;;;5.40;70.20;;;;;;5066036;27;87163;-48
2022/03/17 13:21:51;;;;;;;;;;;5.40;70.30;;;;;;5067525;27;88183;-48
2022/03/17 13:24:20;;;;;;;;;;;5.40;70.20;;;;;;5069783;27;86942;-51
2022/03/17 13:26:57;;;;;;;;;;;5.40;70.30;;;;;;5069651;27;87140;-48
2022/03/17 13:29:23;;;;;;;;;;;5.40;70.30;;;;;;5072122;27;88185;-48
2022/03/17 13:31:48;;;;;;;;;;;5.40;70.20;;;;;;5069196;27;87804;-48
2022/03/17 13:34:30;;;;;;;;;;;5.40;70.20;;;;;;5069576;27;87659;-48
2022/03/17 13:36:57;;;;;;;;;;;5.40;70.20;;;;;;5068954;27;88721;-48
2022/03/17 13:39:32;;;;;;;;;;;5.40;70.20;;;;;;5069435;27;86814;-48
2022/03/17 13:41:58;;;;;;;;;;;5.40;70.20;;;;;;5069435;27;87929;-48
2022/03/17 13:44:24;;;;;;;;;;;5.40;70.20;;;;;;5068686;27;87435;-48
2022/03/17 13:46:49;;;;;;;;;;;5.40;70.20;;;;;;5069331;27;86857;-49
2022/03/17 13:49:15;;;;;;;;;;;5.40;70.30;;;;;;5072563;27;86772;-48
2022/03/17 13:51:41;;;;;;;;;;;5.30;70.20;;;;;;5069243;27;87030;-48
2022/03/17 13:54:07;;;;;;;;;;;5.40;70.10;;;;;;5069453;27;86871;-48
2022/03/17 13:56:35;;;;;;;;;;;5.40;70.20;;;;;;5068111;27;89437;-51
2022/03/17 13:59:02;;;;;;;;;;;5.40;70.20;;;;;;5069058;27;87114;-48
2022/03/17 14:01:27;;;;;;;;;;;5.40;70.30;;;;;;5069071;27;87088;-48
2022/03/17 14:04:00;;;;;;;;;;;5.40;70.20;;;;;;5068683;27;87486;-48
2022/03/17 14:06:33;;;;;;;;;;;5.40;70.20;;;;;;5068858;27;86921;-48
2022/03/17 14:09:08;;;;;;;;;;;5.40;70.20;;;;;;5068855;27;87859;-49
2022/03/17 14:11:36;;;;;;;;;;;5.40;70.30;;;;;;5071450;27;87754;-49
2022/03/17 14:14:02;;;;;;;;;;;5.40;70.30;;;;;;5069330;27;87880;-48
2022/03/17 14:16:28;;;;;;;;;;;5.40;70.30;;;;;;5068592;27;87459;-48
2022/03/17 14:18:55;;;;;;;;;;;5.40;70.30;;;;;;5068726;27;86736;-48
2022/03/17 14:21:21;;;;;;;;;;;5.40;70.30;;;;;;5068168;27;87733;-49
2022/03/17 14:26:33;;;;;;;;;;;5.40;70.40;;;;;;5065704;27;86962;-50
2022/03/17 14:29:00;;;;;;;;;;;5.30;70.40;;;;;;5068577;27;87708;-48
2022/03/17 14:31:30;;;;;;;;;;;5.40;70.40;;;;;;5068280;27;88511;-48
2022/03/17 14:33:56;;;;;;;;;;;5.30;71.00;;;;;;5070117;27;87040;-52
2022/03/17 14:36:24;;;;;;;;;;;5.40;70.50;;;;;;5068416;27;86823;-48
2022/03/17 14:38:50;;;;;;;;;;;5.40;70.50;;;;;;5069031;27;86083;-48
2022/03/17 14:41:16;;;;;;;;;;;5.40;70.50;;;;;;5068447;27;87152;-48
2022/03/17 14:43:43;;;;;;;;;;;5.40;70.50;;;;;;5068062;27;88504;-49
2022/03/17 14:46:09;;;;;;;;;;;5.30;70.60;;;;;;5067466;27;87781;-48
2022/03/17 14:48:35;;;;;;;;;;;5.30;70.60;;;;;;5068321;27;88707;-49
2022/03/17 14:51:03;;;;;;;;;;;5.30;70.80;;;;;;5067876;27;87670;-49